Time;durP1;ratioP1;P1;durP2;ratioP2;P2;SDS_P1;SDS_P2;PMS_P1;PMS_P2;Temp;Humidity;BMP_temperature;BMP_pressure;BME280_temperature;BME280_humidity;BME280_pressure;Samples;Min_cycle;Max_cycle;Signal;HPM_P1;HPM_P2
2022/12/12 00:02:21;;;;;;;35.28;18.05;;;4.90;55.40;;;;;;5044435;28;20064;-48
2022/12/12 00:04:49;;;;;;;36.72;18.67;;;4.90;55.40;;;;;;5039800;28;20072;-49
2022/12/12 00:07:16;;;;;;;38.05;18.10;;;4.90;55.40;;;;;;5044269;28;20056;-46
2022/12/12 00:09:43;;;;;;;41.75;19.80;;;4.90;55.40;;;;;;5043570;28;20063;-46
2022/12/12 00:12:10;;;;;;;40.25;19.50;;;4.90;55.40;;;;;;5043739;28;20056;-47
2022/12/12 00:14:37;;;;;;;39.00;19.33;;;4.90;55.40;;;;;;5043629;28;20057;-45
2022/12/12 00:17:06;;;;;;;32.63;17.30;;;4.90;55.40;;;;;;5044178;28;20405;-44
2022/12/12 00:19:33;;;;;;;35.40;18.00;;;4.90;55.40;;;;;;5039675;28;20045;-48
2022/12/12 00:22:01;;;;;;;35.97;17.75;;;4.80;55.40;;;;;;5040771;28;20061;-44
2022/12/12 00:24:28;;;;;;;34.65;17.83;;;4.80;55.40;;;;;;5045219;28;20079;-46
2022/12/12 00:26:55;;;;;;;34.97;17.60;;;4.80;55.40;;;;;;5043361;28;20053;-46
2022/12/12 00:29:22;;;;;;;34.65;17.65;;;4.80;55.40;;;;;;5041966;28;20060;-47
2022/12/12 00:31:50;;;;;;;33.78;16.95;;;4.80;55.40;;;;;;5043747;28;20511;-46
2022/12/12 00:34:18;;;;;;;40.63;19.23;;;4.80;55.40;;;;;;5042598;28;20049;-46
2022/12/12 00:36:45;;;;;;;41.53;18.13;;;4.80;55.40;;;;;;5043401;28;20500;-44
2022/12/12 00:39:13;;;;;;;38.40;16.75;;;4.80;55.40;;;;;;5044037;28;20052;-46
2022/12/12 00:41:40;;;;;;;37.05;18.35;;;4.80;55.40;;;;;;5042492;28;20481;-48
2022/12/12 00:44:07;;;;;;;34.88;16.38;;;4.80;55.40;;;;;;5042734;28;20057;-45
2022/12/12 00:46:34;;;;;;;39.28;17.95;;;4.80;55.40;;;;;;5043753;28;20061;-48
2022/12/12 00:49:02;;;;;;;34.58;17.60;;;4.80;55.50;;;;;;5039749;28;20064;-47
2022/12/12 00:51:31;;;;;;;36.65;16.85;;;4.80;55.40;;;;;;5040931;28;20057;-48
2022/12/12 00:53:59;;;;;;;33.05;17.52;;;4.80;55.50;;;;;;5044577;28;20056;-47
2022/12/12 00:56:28;;;;;;;36.25;17.45;;;4.80;55.50;;;;;;5044520;28;20056;-45
2022/12/12 00:58:55;;;;;;;38.65;18.70;;;4.80;55.40;;;;;;5042231;28;20057;-46
2022/12/12 01:01:25;;;;;;;35.85;17.45;;;4.70;55.30;;;;;;5040883;28;20064;-49
2022/12/12 01:03:53;;;;;;;29.52;15.52;;;4.70;55.30;;;;;;5042238;28;20061;-47
2022/12/12 01:06:21;;;;;;;36.58;17.98;;;4.70;55.40;;;;;;5041629;28;20057;-47
2022/12/12 01:08:51;;;;;;;36.35;17.85;;;4.70;55.40;;;;;;5042352;28;20072;-47
2022/12/12 01:11:19;;;;;;;34.28;17.20;;;4.70;55.50;;;;;;5041860;28;20049;-47
2022/12/12 01:13:48;;;;;;;36.63;17.73;;;4.70;55.50;;;;;;5042316;28;20051;-45
2022/12/12 01:16:15;;;;;;;37.78;17.75;;;4.70;55.60;;;;;;5043920;28;20515;-46
2022/12/12 01:18:42;;;;;;;35.63;17.65;;;4.60;55.50;;;;;;5041375;28;20048;-48
2022/12/12 01:21:12;;;;;;;38.95;19.48;;;4.60;55.50;;;;;;5038270;28;20713;-46
2022/12/12 01:23:39;;;;;;;33.20;17.23;;;4.60;55.50;;;;;;5041970;28;20053;-44
2022/12/12 01:26:10;;;;;;;32.83;17.05;;;4.60;55.40;;;;;;5044114;28;20488;-47
2022/12/12 01:28:38;;;;;;;38.25;18.85;;;4.60;55.50;;;;;;5041770;28;20053;-44
2022/12/12 01:31:05;;;;;;;34.47;18.23;;;4.60;55.50;;;;;;5038523;28;20056;-48
2022/12/12 01:33:33;;;;;;;38.47;17.92;;;4.60;55.50;;;;;;5041930;28;20056;-44
2022/12/12 01:36:00;;;;;;;35.78;18.05;;;4.50;55.60;;;;;;5038789;28;20057;-45
2022/12/12 01:38:28;;;;;;;38.08;17.27;;;4.50;55.60;;;;;;5042594;28;20049;-48
2022/12/12 01:40:55;;;;;;;36.92;16.95;;;4.60;55.70;;;;;;5040809;28;20052;-49
2022/12/12 01:43:25;;;;;;;29.20;15.90;;;4.50;55.70;;;;;;5042304;28;20060;-45
2022/12/12 01:46:37;;;;;;;26.80;14.18;;;4.50;55.80;;;;;;5043037;28;20061;-46
2022/12/12 01:49:13;;;;;;;28.42;14.73;;;4.50;55.80;;;;;;5037472;28;20052;-46
2022/12/12 01:51:42;;;;;;;28.38;13.73;;;4.60;55.80;;;;;;5039114;28;20148;-48
2022/12/12 01:54:14;;;;;;;29.50;13.95;;;4.60;55.80;;;;;;5042894;28;20057;-43
2022/12/12 01:56:44;;;;;;;29.00;13.80;;;4.60;55.80;;;;;;5043200;28;20053;-45
2022/12/12 01:59:15;;;;;;;28.50;13.77;;;4.50;55.70;;;;;;5041441;28;20104;-46
2022/12/12 02:01:42;;;;;;;27.85;13.50;;;4.60;55.70;;;;;;5042038;28;21104;-48
2022/12/12 02:04:11;;;;;;;29.10;12.63;;;4.50;55.60;;;;;;5041679;28;20064;-44
2022/12/12 02:06:39;;;;;;;25.08;12.07;;;4.60;55.60;;;;;;5039399;28;20049;-47
2022/12/12 02:09:12;;;;;;;23.88;12.25;;;4.60;55.60;;;;;;5042286;28;20052;-49
2022/12/12 02:11:43;;;;;;;27.25;13.35;;;4.60;55.50;;;;;;5040298;28;20049;-47
2022/12/12 02:14:13;;;;;;;28.63;12.82;;;4.60;55.50;;;;;;5041747;28;20155;-46
2022/12/12 02:17:02;;;;;;;25.30;12.75;;;4.60;55.50;;;;;;5042373;28;20076;-45
2022/12/12 02:20:25;;;;;;;28.70;13.30;;;4.60;55.30;;;;;;5029351;28;20052;-49
2022/12/12 02:23:22;;;;;;;25.52;12.57;;;4.60;55.20;;;;;;5042082;28;20056;-44
2022/12/12 02:26:17;;;;;;;26.02;12.07;;;4.60;55.10;;;;;;5042064;28;20068;-47
2022/12/12 02:29:10;;;;;;;23.25;11.50;;;4.60;55.10;;;;;;5007667;28;20497;-46
2022/12/12 02:31:47;;;;;;;27.70;12.55;;;4.60;55.30;;;;;;5040511;28;20060;-45
2022/12/12 02:34:25;;;;;;;24.08;11.35;;;4.50;55.20;;;;;;5043249;28;20059;-46
2022/12/12 02:36:58;;;;;;;27.30;12.45;;;4.50;55.20;;;;;;5044567;28;20053;-46
2022/12/12 02:39:33;;;;;;;24.60;11.20;;;4.50;55.30;;;;;;5041169;28;20488;-50
2022/12/12 02:42:04;;;;;;;23.50;11.73;;;4.50;55.30;;;;;;5043037;28;21021;-45
2022/12/12 02:44:35;;;;;;;22.52;11.43;;;4.50;55.40;;;;;;5045709;28;20049;-43
2022/12/12 02:47:09;;;;;;;24.85;11.70;;;4.50;55.40;;;;;;5046466;28;20064;-46
2022/12/12 02:49:40;;;;;;;22.23;12.00;;;4.50;55.40;;;;;;5044824;28;20044;-48
2022/12/12 02:52:09;;;;;;;27.85;12.85;;;4.50;55.40;;;;;;5042277;28;20398;-47
2022/12/12 02:54:37;;;;;;;27.75;12.88;;;4.50;55.40;;;;;;5045186;28;21002;-46
2022/12/12 02:57:12;;;;;;;27.52;13.85;;;4.50;55.40;;;;;;5040812;28;20049;-48
2022/12/12 02:59:42;;;;;;;24.42;13.10;;;4.50;55.30;;;;;;5046847;28;20045;-45
2022/12/12 03:02:48;;;;;;;26.67;12.43;;;4.50;55.30;;;;;;5043815;28;20068;-46
2022/12/12 03:08:32;;;;;;;25.80;12.00;;;4.50;55.30;;;;;;5014582;28;20060;-44
2022/12/12 03:11:02;;;;;;;25.55;12.50;;;4.50;55.20;;;;;;5044637;28;20063;-52
2022/12/12 03:13:36;;;;;;;24.92;12.80;;;4.50;55.20;;;;;;5044861;28;20500;-47
2022/12/12 03:16:14;;;;;;;26.77;12.30;;;4.50;55.20;;;;;;5045085;28;20067;-44
2022/12/12 03:18:51;;;;;;;25.10;11.23;;;4.50;55.20;;;;;;5042547;28;20053;-44
2022/12/12 03:21:23;;;;;;;24.15;11.32;;;4.50;55.20;;;;;;5040203;28;20055;-49
2022/12/12 03:23:54;;;;;;;25.08;12.77;;;4.50;55.20;;;;;;5042757;28;20428;-46
2022/12/12 03:26:27;;;;;;;25.42;12.20;;;4.50;55.20;;;;;;5044085;28;20056;-47
2022/12/12 03:28:59;;;;;;;20.27;10.93;;;4.50;55.20;;;;;;5041962;28;20044;-49
2022/12/12 03:31:30;;;;;;;24.92;10.88;;;4.50;55.30;;;;;;5040065;28;20057;-43
2022/12/12 03:34:04;;;;;;;25.02;11.18;;;4.50;55.30;;;;;;5046458;28;20076;-52
2022/12/12 03:36:37;;;;;;;20.35;10.27;;;4.40;55.30;;;;;;5040450;28;20412;-49
2022/12/12 03:39:09;;;;;;;24.87;12.00;;;4.50;55.30;;;;;;5045511;28;20080;-52
2022/12/12 03:41:41;;;;;;;24.67;11.13;;;4.50;55.30;;;;;;5040600;28;20057;-49
2022/12/12 03:44:14;;;;;;;22.08;11.40;;;4.40;55.30;;;;;;5044834;28;20053;-52
2022/12/12 03:46:46;;;;;;;20.83;10.95;;;4.40;55.30;;;;;;5043087;28;20049;-53
2022/12/12 03:49:18;;;;;;;25.42;12.02;;;4.40;55.30;;;;;;5046173;28;20064;-52
2022/12/12 03:51:51;;;;;;;20.25;10.93;;;4.40;55.30;;;;;;5042512;28;20052;-50
2022/12/12 03:54:24;;;;;;;21.83;11.07;;;4.40;55.30;;;;;;5044517;28;20056;-51
2022/12/12 03:56:56;;;;;;;22.15;10.95;;;4.40;55.20;;;;;;5043939;28;20053;-52
2022/12/12 03:59:29;;;;;;;21.55;10.80;;;4.40;55.20;;;;;;5045546;28;20056;-52
2022/12/12 04:02:00;;;;;;;21.25;10.50;;;4.40;55.20;;;;;;5040253;28;20086;-53
2022/12/12 04:04:36;;;;;;;18.88;10.13;;;4.40;55.20;;;;;;5044597;28;20107;-51
2022/12/12 04:07:11;;;;;;;22.52;11.00;;;4.40;55.20;;;;;;5041586;28;20068;-51
2022/12/12 04:15:31;;;;;;;20.67;10.40;;;4.40;55.10;;;;;;5045260;28;20671;-51
2022/12/12 04:18:08;;;;;;;26.50;11.77;;;4.40;55.10;;;;;;5042670;28;20060;-52
2022/12/12 04:23:34;;;;;;;19.23;9.80;;;4.40;54.90;;;;;;5048440;28;20127;-47
2022/12/12 04:29:06;;;;;;;21.38;10.27;;;4.30;54.70;;;;;;5050449;28;20059;-53
2022/12/12 04:31:38;;;;;;;20.77;10.38;;;4.30;54.70;;;;;;5043299;28;20061;-50
2022/12/12 04:34:14;;;;;;;23.42;10.13;;;4.30;54.80;;;;;;5043715;28;20435;-49
2022/12/12 04:36:45;;;;;;;19.77;9.70;;;4.30;54.80;;;;;;5043237;28;20056;-53
2022/12/12 04:39:14;;;;;;;19.25;9.52;;;4.30;54.90;;;;;;5044239;28;20045;-52
2022/12/12 04:41:45;;;;;;;19.10;9.88;;;4.30;54.90;;;;;;5041938;28;20052;-52
2022/12/12 04:44:14;;;;;;;20.05;10.00;;;4.30;55.00;;;;;;5044668;28;20057;-50
2022/12/12 04:46:42;;;;;;;21.80;10.40;;;4.30;55.10;;;;;;5042553;28;20049;-51
2022/12/12 04:49:16;;;;;;;20.35;10.18;;;4.30;55.10;;;;;;5042176;28;21734;-52
2022/12/12 04:51:48;;;;;;;24.73;10.38;;;4.30;55.10;;;;;;5041722;28;20516;-52
2022/12/12 04:54:21;;;;;;;19.95;10.00;;;4.30;55.10;;;;;;5043704;28;20060;-53
2022/12/12 04:56:52;;;;;;;21.33;9.80;;;4.30;54.90;;;;;;5043341;28;20084;-50
2022/12/12 04:59:20;;;;;;;21.45;11.13;;;4.30;54.90;;;;;;5044202;28;20060;-53
2022/12/12 05:01:55;;;;;;;19.42;10.13;;;4.30;54.90;;;;;;5042210;28;20060;-52
2022/12/12 05:04:28;;;;;;;24.30;11.43;;;4.30;54.90;;;;;;5043344;28;20057;-51
2022/12/12 05:07:00;;;;;;;21.33;10.48;;;4.30;55.00;;;;;;5040387;28;20080;-54
2022/12/12 05:09:28;;;;;;;25.35;10.55;;;4.30;55.00;;;;;;5039593;28;20056;-54
2022/12/12 05:11:55;;;;;;;20.52;9.68;;;4.30;55.00;;;;;;5038935;28;20056;-53
2022/12/12 05:14:22;;;;;;;61.20;25.48;;;4.30;55.00;;;;;;5043001;28;20064;-54
2022/12/12 05:16:52;;;;;;;78.10;28.13;;;4.30;55.00;;;;;;5036656;28;20056;-50
2022/12/12 05:19:20;;;;;;;37.53;16.27;;;4.30;55.00;;;;;;5035554;28;20511;-53
2022/12/12 05:21:48;;;;;;;27.50;13.35;;;4.30;55.00;;;;;;5035872;28;20053;-52
2022/12/12 05:24:16;;;;;;;22.75;11.18;;;4.30;55.00;;;;;;5042426;28;20048;-53
2022/12/12 05:26:43;;;;;;;21.27;10.40;;;4.30;55.00;;;;;;5041870;28;20060;-50
2022/12/12 05:29:11;;;;;;;21.13;10.48;;;4.30;55.00;;;;;;5041938;28;20049;-53
2022/12/12 05:31:38;;;;;;;21.80;9.60;;;4.30;55.00;;;;;;5040463;28;20754;-52
2022/12/12 05:34:05;;;;;;;24.60;10.75;;;4.30;55.00;;;;;;5039048;28;20056;-50
2022/12/12 05:36:33;;;;;;;21.55;10.35;;;4.30;55.00;;;;;;5040718;28;20049;-53
2022/12/12 05:39:00;;;;;;;17.98;10.13;;;4.30;55.00;;;;;;5040980;28;20048;-52
2022/12/12 05:45:32;;;;;;;22.60;9.98;;;4.30;54.90;;;;;;5059407;28;20040;-53
2022/12/12 05:48:01;;;;;;;18.48;9.30;;;4.30;54.90;;;;;;5041515;28;20052;-52
2022/12/12 05:50:28;;;;;;;20.17;9.43;;;4.30;54.90;;;;;;5039109;28;20049;-51
2022/12/12 05:52:55;;;;;;;20.05;10.60;;;4.30;55.00;;;;;;5040775;28;20064;-51
2022/12/12 05:55:22;;;;;;;20.00;9.48;;;4.30;55.00;;;;;;5038935;28;20496;-51
2022/12/12 05:57:49;;;;;;;18.05;9.75;;;4.30;55.00;;;;;;5042028;28;20061;-52
2022/12/12 06:00:17;;;;;;;18.70;9.63;;;4.30;55.00;;;;;;5038995;28;20216;-49
2022/12/12 06:02:44;;;;;;;20.40;10.20;;;4.30;54.90;;;;;;5042280;28;20083;-50
2022/12/12 06:05:13;;;;;;;25.00;10.65;;;4.30;54.90;;;;;;5041523;28;20513;-51
2022/12/12 06:07:40;;;;;;;25.05;10.65;;;4.30;54.90;;;;;;5039209;28;20060;-52
2022/12/12 06:10:08;;;;;;;19.83;9.35;;;4.30;54.90;;;;;;5041331;28;20083;-51
2022/12/12 06:12:36;;;;;;;21.77;11.10;;;4.30;54.80;;;;;;5041312;28;20060;-51
2022/12/12 06:15:03;;;;;;;20.42;10.23;;;4.30;54.90;;;;;;5041631;28;20056;-52
2022/12/12 06:17:30;;;;;;;23.38;10.90;;;4.30;54.90;;;;;;5042744;28;20056;-54
2022/12/12 06:19:57;;;;;;;20.60;9.88;;;4.20;54.90;;;;;;5040482;28;20531;-51
2022/12/12 06:22:26;;;;;;;24.83;11.18;;;4.20;54.80;;;;;;5040037;28;20056;-53
2022/12/12 06:24:53;;;;;;;20.45;10.25;;;4.20;54.80;;;;;;5041930;28;20060;-51
2022/12/12 06:27:20;;;;;;;25.27;11.50;;;4.20;54.70;;;;;;5040091;28;20052;-51
2022/12/12 06:29:48;;;;;;;27.85;11.48;;;4.20;54.70;;;;;;5038292;28;20053;-48
2022/12/12 06:32:15;;;;;;;21.85;10.13;;;4.20;54.70;;;;;;5043297;28;20048;-50
2022/12/12 06:34:42;;;;;;;24.27;10.40;;;4.20;54.70;;;;;;5043693;28;20057;-52
2022/12/12 06:37:09;;;;;;;19.50;10.00;;;4.20;54.70;;;;;;5040211;28;20067;-52
2022/12/12 06:39:38;;;;;;;19.63;9.50;;;4.20;54.80;;;;;;5042862;28;20103;-53
2022/12/12 06:42:05;;;;;;;21.13;9.00;;;4.20;54.70;;;;;;5041717;28;20080;-49
2022/12/12 06:44:33;;;;;;;22.95;10.10;;;4.20;54.70;;;;;;5042332;28;20044;-50
2022/12/12 06:47:00;;;;;;;25.05;10.23;;;4.20;54.70;;;;;;5042658;28;20060;-51
2022/12/12 06:49:27;;;;;;;22.35;9.57;;;4.20;54.70;;;;;;5040946;28;20093;-49
2022/12/12 06:51:55;;;;;;;22.38;8.82;;;4.20;54.70;;;;;;5041679;28;20064;-52
2022/12/12 06:54:22;;;;;;;19.15;9.10;;;4.20;54.70;;;;;;5041644;28;20072;-52
2022/12/12 06:56:51;;;;;;;16.10;8.90;;;4.20;54.70;;;;;;5042546;28;20053;-52
2022/12/12 06:59:18;;;;;;;19.77;9.60;;;4.20;54.70;;;;;;5039278;28;20064;-51
2022/12/12 07:01:45;;;;;;;20.48;9.40;;;4.20;54.80;;;;;;5037508;28;20053;-52
2022/12/12 07:04:13;;;;;;;19.52;9.10;;;4.20;54.80;;;;;;5042512;28;20049;-53
2022/12/12 07:06:41;;;;;;;15.82;8.68;;;4.20;54.80;;;;;;5041091;28;20049;-50
2022/12/12 07:09:08;;;;;;;16.10;8.23;;;4.20;54.80;;;;;;5042620;28;20163;-54
2022/12/12 07:11:35;;;;;;;17.52;8.23;;;4.20;54.90;;;;;;5041306;28;20053;-51
2022/12/12 07:14:04;;;;;;;17.30;8.02;;;4.20;54.90;;;;;;5041350;28;20063;-53
2022/12/12 07:16:31;;;;;;;19.48;9.43;;;4.20;54.90;;;;;;5042727;28;20516;-50
2022/12/12 07:18:59;;;;;;;20.27;9.15;;;4.20;54.90;;;;;;5041638;28;20053;-50
2022/12/12 07:21:26;;;;;;;18.05;8.65;;;4.20;54.90;;;;;;5042642;28;20598;-51
2022/12/12 07:23:53;;;;;;;17.92;9.80;;;4.20;54.90;;;;;;5043484;28;20053;-50
2022/12/12 07:26:22;;;;;;;15.60;7.93;;;4.20;54.90;;;;;;5046269;28;20516;-51
2022/12/12 07:28:50;;;;;;;20.80;9.80;;;4.20;54.90;;;;;;5043409;28;20064;-52
2022/12/12 07:31:21;;;;;;;19.80;9.98;;;4.20;54.90;;;;;;5041251;28;20045;-50
2022/12/12 07:33:49;;;;;;;18.27;9.63;;;4.20;54.90;;;;;;5043053;28;20059;-52
2022/12/12 07:36:16;;;;;;;19.77;9.45;;;4.20;54.90;;;;;;5043826;28;20061;-51
2022/12/12 07:38:44;;;;;;;19.58;10.18;;;4.20;54.90;;;;;;5045713;28;20057;-54
2022/12/12 07:41:13;;;;;;;20.23;9.77;;;4.20;54.90;;;;;;5042725;28;20052;-53
2022/12/12 07:43:42;;;;;;;17.55;9.60;;;4.20;54.80;;;;;;5045882;28;20053;-53
2022/12/12 07:46:11;;;;;;;19.48;10.20;;;4.20;54.90;;;;;;5044397;28;20424;-52
2022/12/12 07:48:40;;;;;;;24.60;11.43;;;4.20;54.90;;;;;;5044517;28;20468;-50
2022/12/12 07:51:07;;;;;;;20.17;10.52;;;4.20;54.90;;;;;;5042545;28;20049;-51
2022/12/12 07:53:34;;;;;;;20.85;10.25;;;4.20;54.80;;;;;;5045531;28;20075;-50
2022/12/12 07:56:05;;;;;;;21.23;10.10;;;4.20;54.80;;;;;;5045008;28;20053;-51
2022/12/12 07:58:33;;;;;;;20.38;10.15;;;4.20;54.80;;;;;;5046206;28;20060;-51
2022/12/12 08:01:01;;;;;;;21.73;11.65;;;4.20;54.80;;;;;;5042420;28;20512;-51
2022/12/12 08:03:29;;;;;;;21.38;10.32;;;4.20;54.80;;;;;;5044072;28;20049;-54
2022/12/12 08:05:58;;;;;;;28.45;10.80;;;4.20;54.80;;;;;;5044192;28;20240;-50
2022/12/12 08:08:26;;;;;;;22.58;11.02;;;4.20;54.80;;;;;;5045276;28;20068;-52
2022/12/12 08:10:54;;;;;;;19.73;9.93;;;4.20;54.80;;;;;;5043367;28;20049;-51
2022/12/12 08:13:22;;;;;;;21.85;10.70;;;4.20;54.80;;;;;;5045306;28;20433;-51
2022/12/12 08:15:51;;;;;;;25.25;10.98;;;4.20;54.80;;;;;;5041792;28;20600;-51
2022/12/12 08:18:19;;;;;;;23.13;11.27;;;4.20;54.80;;;;;;5042915;28;20076;-50
2022/12/12 08:20:47;;;;;;;18.95;10.50;;;4.20;54.80;;;;;;5038756;28;20709;-52
2022/12/12 08:23:18;;;;;;;21.27;10.40;;;4.20;54.80;;;;;;5044818;28;20057;-52
2022/12/12 08:25:45;;;;;;;20.25;10.60;;;4.20;54.80;;;;;;5044703;28;20575;-52
2022/12/12 08:28:13;;;;;;;22.95;10.75;;;4.20;54.90;;;;;;5045651;28;20400;-49
2022/12/12 08:30:41;;;;;;;22.88;12.20;;;4.20;55.40;;;;;;5038079;28;20059;-50
2022/12/12 08:33:09;;;;;;;23.58;11.02;;;4.20;54.90;;;;;;5043861;28;20056;-52
2022/12/12 08:35:37;;;;;;;20.88;10.68;;;4.20;54.90;;;;;;5042813;28;20492;-52
2022/12/12 08:38:04;;;;;;;21.73;11.27;;;4.20;54.90;;;;;;5045483;28;20048;-51
2022/12/12 08:40:38;;;;;;;22.27;10.90;;;4.20;54.90;;;;;;5041428;28;20049;-51
2022/12/12 08:43:06;;;;;;;22.27;10.90;;;4.20;54.90;;;;;;5041863;28;20477;-51
2022/12/12 08:45:34;;;;;;;26.77;11.93;;;4.20;55.00;;;;;;5043222;28;20059;-52
2022/12/12 08:48:02;;;;;;;23.67;11.52;;;4.20;54.90;;;;;;5040532;28;20056;-49
2022/12/12 08:50:29;;;;;;;23.42;11.82;;;4.30;55.00;;;;;;5039682;28;20504;-51
2022/12/12 08:52:57;;;;;;;23.25;11.40;;;4.30;55.00;;;;;;5043389;28;20536;-53
2022/12/12 08:55:24;;;;;;;22.33;11.52;;;4.30;55.00;;;;;;5040141;28;20469;-51
2022/12/12 08:57:53;;;;;;;21.35;10.95;;;4.30;55.00;;;;;;5041546;28;20075;-53
2022/12/12 09:00:20;;;;;;;36.60;16.88;;;4.30;55.00;;;;;;5037278;28;20052;-52
2022/12/12 09:02:47;;;;;;;127.05;47.10;;;4.30;55.00;;;;;;5040895;28;20064;-49
2022/12/12 09:05:15;;;;;;;48.35;21.13;;;4.30;55.00;;;;;;5039846;28;20492;-51
2022/12/12 09:07:42;;;;;;;28.98;13.40;;;4.40;55.10;;;;;;5042612;28;20057;-50
2022/12/12 09:10:10;;;;;;;23.80;11.93;;;4.40;55.60;;;;;;5037159;28;20492;-52
2022/12/12 09:12:37;;;;;;;27.33;12.85;;;4.40;55.10;;;;;;5037605;28;20652;-49
2022/12/12 09:15:07;;;;;;;23.00;11.13;;;4.40;55.00;;;;;;5042025;28;20068;-50
2022/12/12 09:17:35;;;;;;;21.52;11.35;;;4.40;55.10;;;;;;5042173;28;20072;-50
2022/12/12 09:20:03;;;;;;;23.42;12.00;;;4.40;55.00;;;;;;5042296;28;20519;-52
2022/12/12 09:22:33;;;;;;;24.35;11.30;;;4.40;55.10;;;;;;5041054;28;20052;-51
2022/12/12 09:25:01;;;;;;;22.17;11.18;;;4.40;55.00;;;;;;5042601;28;20049;-51
2022/12/12 09:27:28;;;;;;;22.73;11.52;;;4.40;55.00;;;;;;5042113;28;20057;-52
2022/12/12 09:29:56;;;;;;;23.38;12.05;;;4.40;55.00;;;;;;5041256;28;20534;-54
2022/12/12 09:32:26;;;;;;;24.92;12.65;;;4.40;54.90;;;;;;5040522;28;20056;-53
2022/12/12 09:34:54;;;;;;;24.75;12.30;;;4.50;55.00;;;;;;5040066;28;20385;-50
2022/12/12 09:37:22;;;;;;;23.65;12.20;;;4.50;55.00;;;;;;5041965;28;20493;-54
2022/12/12 09:39:51;;;;;;;25.85;12.30;;;4.40;55.00;;;;;;5043904;28;20053;-51
2022/12/12 09:42:23;;;;;;;30.77;13.48;;;4.50;55.10;;;;;;5042187;28;20064;-52
2022/12/12 09:44:53;;;;;;;21.52;12.13;;;4.50;55.10;;;;;;5040434;28;20408;-50
2022/12/12 09:47:32;;;;;;;23.13;12.10;;;4.50;55.10;;;;;;5040545;28;20052;-50
2022/12/12 09:50:03;;;;;;;25.40;12.77;;;4.50;55.10;;;;;;5042088;28;20057;-51
2022/12/12 09:52:33;;;;;;;22.73;12.40;;;4.50;55.10;;;;;;5041641;28;20045;-51
2022/12/12 09:55:25;;;;;;;23.48;11.55;;;4.50;55.00;;;;;;5041001;28;20068;-51
2022/12/12 09:57:59;;;;;;;21.67;11.48;;;4.60;55.50;;;;;;5040844;28;20056;-51
2022/12/12 10:00:28;;;;;;;28.45;12.40;;;4.60;55.00;;;;;;5038481;28;20053;-50
2022/12/12 10:03:12;;;;;;;25.35;12.68;;;4.60;55.00;;;;;;5042247;28;20477;-51
2022/12/12 10:05:45;;;;;;;24.50;11.70;;;4.60;54.90;;;;;;5033919;28;20057;-53
2022/12/12 10:08:21;;;;;;;28.17;12.45;;;4.60;54.90;;;;;;5042982;28;20525;-51
2022/12/12 10:10:52;;;;;;;26.10;12.43;;;4.60;54.90;;;;;;5039989;28;20057;-50
2022/12/12 10:13:23;;;;;;;26.52;13.30;;;4.60;54.90;;;;;;5036509;28;20053;-52
2022/12/12 10:15:53;;;;;;;28.63;13.82;;;4.60;54.90;;;;;;5038706;28;20067;-50
2022/12/12 10:18:28;;;;;;;26.67;12.93;;;4.60;54.90;;;;;;5040364;28;20507;-51
2022/12/12 10:20:59;;;;;;;26.50;12.40;;;4.60;54.90;;;;;;5037083;28;20069;-49
2022/12/12 10:23:35;;;;;;;23.40;12.68;;;4.60;54.90;;;;;;5042326;28;20060;-51
2022/12/12 10:26:07;;;;;;;26.38;12.25;;;4.70;54.80;;;;;;5042433;28;20053;-52
2022/12/12 10:28:35;;;;;;;30.48;13.10;;;4.70;54.80;;;;;;5039694;28;20048;-47
2022/12/12 10:31:20;;;;;;;25.15;12.63;;;4.70;54.80;;;;;;5035338;28;20059;-49
2022/12/12 10:34:14;;;;;;;28.55;13.27;;;4.70;54.80;;;;;;5038180;28;20045;-47
2022/12/12 10:36:58;;;;;;;23.63;11.82;;;4.70;54.70;;;;;;5036202;28;20052;-52
2022/12/12 10:39:32;;;;;;;26.07;12.53;;;4.70;54.70;;;;;;5039257;28;20061;-51
2022/12/12 10:42:01;;;;;;;;;;;4.80;54.70;;;;;;5043186;28;20045;-51
2022/12/12 10:44:51;;;;;;;27.65;12.82;;;4.80;54.80;;;;;;5040624;28;19928;-52
2022/12/12 10:47:19;;;;;;;29.48;13.85;;;4.80;54.60;;;;;;5041270;28;20057;-49
2022/12/12 10:49:48;;;;;;;27.48;12.82;;;4.80;54.60;;;;;;5043149;28;20057;-50
2022/12/12 10:52:18;;;;;;;29.38;12.80;;;4.80;54.50;;;;;;5038562;28;20053;-51
2022/12/12 10:54:51;;;;;;;21.42;10.75;;;4.80;54.50;;;;;;5041169;28;20049;-49
2022/12/12 10:57:23;;;;;;;25.63;12.23;;;4.80;54.40;;;;;;5039759;28;20472;-50
2022/12/12 10:59:52;;;;;;;23.65;12.80;;;4.80;54.50;;;;;;5044229;28;20060;-49
2022/12/12 11:02:28;;;;;;;23.10;11.43;;;4.80;54.50;;;;;;5043897;28;20045;-51
2022/12/12 11:05:20;;;;;;;25.90;12.27;;;4.80;54.50;;;;;;5045068;28;20061;-50
2022/12/12 11:07:57;;;;;;;29.92;13.52;;;4.80;54.50;;;;;;5039877;28;20682;-50
2022/12/12 11:10:28;;;;;;;25.98;12.45;;;4.80;54.50;;;;;;5045331;28;20079;-52
2022/12/12 11:12:57;;;;;;;27.42;13.10;;;4.90;54.50;;;;;;5044241;28;20041;-49
2022/12/12 11:15:29;;;;;;;26.38;12.88;;;4.80;54.50;;;;;;5046234;28;20064;-50
2022/12/12 11:17:57;;;;;;;28.75;13.27;;;4.90;54.40;;;;;;5043272;28;20449;-49
2022/12/12 11:20:26;;;;;;;28.80;12.98;;;4.90;54.50;;;;;;5044819;28;20048;-51
2022/12/12 11:22:56;;;;;;;26.73;12.90;;;4.80;54.40;;;;;;5045196;28;20049;-51
2022/12/12 11:25:30;;;;;;;24.67;12.73;;;4.90;54.50;;;;;;5043455;28;20394;-49
2022/12/12 11:27:59;;;;;;;;;;;4.90;54.50;;;;;;5041737;28;20409;-53
2022/12/12 11:30:34;;;;;;;22.73;11.88;;;4.90;54.50;;;;;;5042930;28;20280;-49
2022/12/12 11:33:03;;;;;;;29.73;13.18;;;4.90;54.40;;;;;;5045195;28;20049;-53
2022/12/12 11:35:35;;;;;;;27.83;12.68;;;4.90;54.40;;;;;;5043444;28;20060;-51
2022/12/12 11:38:06;;;;;;;28.75;12.63;;;4.90;54.30;;;;;;5044745;28;20059;-52
2022/12/12 11:40:36;;;;;;;25.38;11.98;;;4.90;54.40;;;;;;5045289;28;20053;-50
2022/12/12 11:43:22;;;;;;;22.73;11.68;;;4.90;54.40;;;;;;5043471;28;20052;-50
2022/12/12 11:46:01;;;;;;;23.40;11.15;;;4.90;54.40;;;;;;5040479;28;20061;-49
2022/12/12 11:48:44;;;;;;;25.85;12.98;;;4.90;54.40;;;;;;5043174;28;20053;-51
2022/12/12 11:51:13;;;;;;;25.55;12.57;;;4.90;54.30;;;;;;5038900;28;20052;-50
2022/12/12 11:53:43;;;;;;;26.75;12.23;;;5.00;54.40;;;;;;5044943;28;20056;-50
2022/12/12 11:56:24;;;;;;;20.90;10.75;;;5.00;54.40;;;;;;5044512;28;20155;-52
2022/12/12 11:59:07;;;;;;;27.95;12.63;;;5.00;54.30;;;;;;5039871;28;20053;-50
2022/12/12 12:01:44;;;;;;;22.75;11.30;;;5.00;54.30;;;;;;5037179;28;20057;-51
2022/12/12 12:04:32;;;;;;;24.08;12.02;;;5.00;54.30;;;;;;5041925;28;20045;-50
2022/12/12 12:07:15;;;;;;;23.38;10.98;;;5.00;54.20;;;;;;5041391;28;20060;-52
2022/12/12 12:09:49;;;;;;;20.07;10.63;;;5.10;54.20;;;;;;5044826;28;20064;-52
2022/12/12 12:12:20;;;;;;;36.63;16.10;;;5.00;54.20;;;;;;5044194;28;20072;-48
2022/12/12 12:15:20;;;;;;;25.83;11.98;;;5.10;54.20;;;;;;5044318;28;20064;-52
2022/12/12 12:18:05;;;;;;;24.88;11.43;;;5.10;54.20;;;;;;5043908;28;20063;-47
2022/12/12 12:20:47;;;;;;;23.17;11.52;;;5.10;54.20;;;;;;5039499;28;20692;-49
2022/12/12 12:23:26;;;;;;;22.50;10.95;;;5.10;54.20;;;;;;5044897;28;20064;-48
2022/12/12 12:25:58;;;;;;;21.95;11.90;;;5.10;54.20;;;;;;5043321;28;20053;-48
2022/12/12 12:29:12;;;;;;;25.05;11.80;;;5.10;54.10;;;;;;5044875;28;20060;-53
2022/12/12 12:31:50;;;;;;;22.50;10.85;;;5.10;54.10;;;;;;4994972;28;20075;-51
2022/12/12 12:34:22;;;;;;;23.75;11.48;;;5.10;54.10;;;;;;5044649;28;20053;-50
2022/12/12 12:37:03;;;;;;;23.40;11.93;;;5.10;54.10;;;;;;5041984;28;20053;-50
2022/12/12 12:39:50;;;;;;;20.20;11.52;;;5.20;54.10;;;;;;5044430;28;20049;-51
2022/12/12 12:42:32;;;;;;;22.10;11.02;;;5.20;54.10;;;;;;5041673;28;20075;-50
2022/12/12 12:45:06;;;;;;;21.58;11.30;;;5.20;54.10;;;;;;5044696;28;20061;-52
2022/12/12 12:47:37;;;;;;;;;;;5.20;54.10;;;;;;5045439;28;20500;-50
2022/12/12 12:50:16;;;;;;;21.35;10.35;;;5.20;54.10;;;;;;5041478;28;19928;-52
2022/12/12 12:52:49;;;;;;;24.42;12.10;;;5.20;54.00;;;;;;5042698;28;20057;-51
2022/12/12 12:55:22;;;;;;;23.17;11.30;;;5.20;54.00;;;;;;5042957;28;20050;-52
2022/12/12 12:57:51;;;;;;;23.60;11.17;;;5.20;54.00;;;;;;5041872;28;20053;-49
2022/12/12 13:00:21;;;;;;;24.08;11.50;;;5.30;54.10;;;;;;5041583;28;20057;-53
2022/12/12 13:02:55;;;;;;;22.50;11.10;;;5.30;54.10;;;;;;5043110;28;20053;-52
2022/12/12 13:05:26;;;;;;;;;;;5.30;54.00;;;;;;5044202;28;20053;-50
2022/12/12 13:07:57;;;;;;;21.13;10.10;;;5.30;54.10;;;;;;5043818;28;20391;-50
2022/12/12 13:10:28;;;;;;;24.25;11.20;;;5.30;54.00;;;;;;5042552;28;20079;-52
2022/12/12 13:13:00;;;;;;;24.67;10.43;;;5.30;53.90;;;;;;5042407;28;20065;-53
2022/12/12 13:15:32;;;;;;;22.08;10.10;;;5.30;53.90;;;;;;5042266;28;20080;-50
2022/12/12 13:18:02;;;;;;;20.90;9.90;;;5.30;53.90;;;;;;5042967;28;20056;-52
2022/12/12 13:20:33;;;;;;;24.85;11.02;;;5.30;53.80;;;;;;5039768;28;20057;-48
2022/12/12 13:23:17;;;;;;;19.70;10.25;;;5.30;53.70;;;;;;5043829;28;20053;-50